createdAt,value
2023-05-22T00:00:10.393Z,73.19
2023-05-22T00:02:37.430Z,73.29
2023-05-22T00:05:07.890Z,73.14
2023-05-22T00:07:34.646Z,73.25
2023-05-22T00:10:03.871Z,73.46
2023-05-22T00:12:33.688Z,73.92
2023-05-22T00:15:00.458Z,73.21
2023-05-22T00:17:27.402Z,73.81
2023-05-22T00:19:57.123Z,73.65
2023-05-22T00:22:24.071Z,73.35
2023-05-22T00:24:50.838Z,73.75
2023-05-22T00:27:17.711Z,74.00
2023-05-22T00:29:44.407Z,74.06
2023-05-22T00:32:11.220Z,74.53
2023-05-22T00:34:40.810Z,74.81
2023-05-22T00:37:07.631Z,74.73
2023-05-22T00:39:34.503Z,74.97
2023-05-22T00:42:01.299Z,74.43
2023-05-22T00:44:29.105Z,74.59
2023-05-22T00:46:56.048Z,77.23
2023-05-22T00:49:22.950Z,76.79
2023-05-22T00:51:50.064Z,76.77
2023-05-22T00:54:17.408Z,76.38
2023-05-22T00:56:44.512Z,75.69
2023-05-22T00:59:17.689Z,76.79
2023-05-22T01:01:44.430Z,76.40
2023-05-22T01:04:12.898Z,76.59
2023-05-22T01:06:39.956Z,76.38
2023-05-22T01:09:07.483Z,76.09
2023-05-22T01:12:01.097Z,78.34
2023-05-22T01:15:01.260Z,78.15
2023-05-22T01:17:27.957Z,77.59
2023-05-22T01:20:06.459Z,77.50
2023-05-22T01:22:57.039Z,78.04
2023-05-22T01:25:35.663Z,78.67
2023-05-22T01:28:38.071Z,80.13
2023-05-22T01:31:16.078Z,79.01
2023-05-22T01:33:54.962Z,78.73
2023-05-22T01:36:26.838Z,79.80
2023-05-22T01:38:54.434Z,78.34
2023-05-22T01:41:21.471Z,79.01
2023-05-22T01:43:48.280Z,79.28
2023-05-22T01:46:15.026Z,79.42
2023-05-22T01:48:41.822Z,79.25
2023-05-22T01:51:49.111Z,78.98
2023-05-22T01:54:41.607Z,78.49
2023-05-22T01:57:41.680Z,78.53
2023-05-22T02:00:16.800Z,78.59
2023-05-22T02:02:51.373Z,79.89
2023-05-22T02:05:28.204Z,79.29
2023-05-22T02:07:58.546Z,79.22
2023-05-22T02:10:27.538Z,79.03
2023-05-22T02:12:54.457Z,79.38
2023-05-22T02:15:21.369Z,78.79
2023-05-22T02:17:48.257Z,79.01
2023-05-22T02:20:18.092Z,80.03
2023-05-22T02:22:47.230Z,78.60
2023-05-22T02:25:14.985Z,78.53
2023-05-22T02:27:54.837Z,79.37
2023-05-22T02:30:21.564Z,79.46
2023-05-22T02:32:48.365Z,80.42
2023-05-22T02:35:15.186Z,80.71
2023-05-22T02:37:42.036Z,79.96
2023-05-22T02:40:11.764Z,80.04
2023-05-22T02:42:38.573Z,80.59
2023-05-22T02:45:05.774Z,81.23
2023-05-22T02:47:32.650Z,80.80
2023-05-22T02:49:59.536Z,80.92
2023-05-22T02:52:28.687Z,80.75
2023-05-22T02:54:57.682Z,80.96
2023-05-22T02:57:24.366Z,81.81
2023-05-22T02:59:51.317Z,81.73
2023-05-22T03:02:20.670Z,81.32
2023-05-22T03:04:49.761Z,81.29
2023-05-22T03:07:16.527Z,81.74
2023-05-22T03:09:43.198Z,81.46
2023-05-22T03:12:10.366Z,81.23
2023-05-22T03:14:39.168Z,81.29
2023-05-22T03:17:06.036Z,80.37
2023-05-22T03:19:32.888Z,81.34
2023-05-22T03:21:59.764Z,80.45
2023-05-22T03:24:26.469Z,79.85
2023-05-22T03:26:53.374Z,80.40
2023-05-22T03:29:20.095Z,80.46
2023-05-22T03:31:47.053Z,80.51
2023-05-22T03:34:19.496Z,79.24
2023-05-22T03:36:46.323Z,79.66
2023-05-22T03:39:13.162Z,78.60
2023-05-22T03:41:42.817Z,78.77
2023-05-22T03:44:12.563Z,78.78
2023-05-22T03:46:42.434Z,77.58
2023-05-22T03:49:11.435Z,77.61
2023-05-22T03:51:41.494Z,77.06
2023-05-22T03:54:08.666Z,76.48
2023-05-22T03:56:36.188Z,76.14
2023-05-22T03:59:03.379Z,75.97
2023-05-22T04:01:42.838Z,75.37
2023-05-22T04:04:09.560Z,74.98
2023-05-22T04:06:39.701Z,75.13
2023-05-22T04:09:06.372Z,76.29
2023-05-22T04:11:37.671Z,75.30
2023-05-22T04:14:04.399Z,75.48
2023-05-22T04:16:31.300Z,74.79
2023-05-22T04:18:58.312Z,74.26
2023-05-22T04:21:32.765Z,74.98
2023-05-22T04:23:59.666Z,74.74
2023-05-22T04:26:26.407Z,74.36
2023-05-22T04:28:53.321Z,74.09
2023-05-22T04:31:20.020Z,74.48
2023-05-22T04:33:47.026Z,74.37
2023-05-22T04:36:13.887Z,73.46
2023-05-22T04:38:40.651Z,73.91
2023-05-22T04:41:07.784Z,73.74
2023-05-22T04:43:39.478Z,73.17
2023-05-22T04:46:06.612Z,71.98
2023-05-22T04:48:33.278Z,71.72
2023-05-22T04:51:00.057Z,71.84
2023-05-22T04:53:26.739Z,71.21
2023-05-22T04:55:53.842Z,70.80
2023-05-22T04:58:20.736Z,70.24
2023-05-22T05:00:47.504Z,69.18
2023-05-22T05:03:23.962Z,68.87
2023-05-22T05:05:53.204Z,69.37
2023-05-22T05:08:19.925Z,69.29
2023-05-22T05:10:46.596Z,69.76
2023-05-22T05:13:15.225Z,68.55
2023-05-22T05:15:41.934Z,68.76
2023-05-22T05:18:08.698Z,69.48
2023-05-22T05:20:36.292Z,67.70
2023-05-22T05:23:03.247Z,68.02
2023-05-22T05:25:30.103Z,66.97
2023-05-22T05:27:56.797Z,66.53
2023-05-22T05:30:23.592Z,66.46
2023-05-22T05:32:50.454Z,65.29
2023-05-22T05:35:17.636Z,65.28
2023-05-22T05:37:48.468Z,64.98
2023-05-22T05:40:24.450Z,64.60
2023-05-22T05:42:51.144Z,64.23
2023-05-22T05:45:18.292Z,64.00
2023-05-22T05:47:48.038Z,63.07
2023-05-22T05:50:17.287Z,62.06
2023-05-22T05:52:45.569Z,61.76
2023-05-22T05:55:12.429Z,61.22
2023-05-22T05:57:42.633Z,62.40
2023-05-22T06:03:03.463Z,61.12
2023-05-22T06:05:44.327Z,60.39
2023-05-22T06:10:58.977Z,59.15
2023-05-22T06:13:34.842Z,58.43
2023-05-22T06:16:09.234Z,55.24
2023-05-22T06:18:36.113Z,57.03
2023-05-22T06:21:11.000Z,55.44
2023-05-22T06:23:39.022Z,54.50
2023-05-22T06:26:06.118Z,54.62
2023-05-22T06:28:57.543Z,53.80
2023-05-22T06:31:46.746Z,53.81
2023-05-22T06:34:17.866Z,53.81
2023-05-22T06:36:51.625Z,54.16
2023-05-22T06:39:24.610Z,53.79
2023-05-22T06:41:57.439Z,54.17
2023-05-22T06:44:32.974Z,54.33
2023-05-22T06:46:59.821Z,54.18
2023-05-22T06:49:26.943Z,53.24
2023-05-22T06:51:54.254Z,54.33
2023-05-22T06:54:21.297Z,54.07
2023-05-22T06:56:49.834Z,53.93
2023-05-22T06:59:17.367Z,52.88
2023-05-22T07:01:45.258Z,53.17
2023-05-22T07:04:13.586Z,53.38
2023-05-22T07:06:40.448Z,53.49
2023-05-22T07:09:10.698Z,52.94
2023-05-22T07:11:45.075Z,51.86
2023-05-22T07:14:13.505Z,51.65
2023-05-22T07:16:42.455Z,51.94
2023-05-22T07:19:12.922Z,51.49
2023-05-22T07:21:39.635Z,52.48
2023-05-22T07:24:06.605Z,52.34
2023-05-22T07:29:21.301Z,52.45
2023-05-22T07:31:49.843Z,52.19
2023-05-22T07:34:16.870Z,52.21
2023-05-22T07:36:44.400Z,51.81
2023-05-22T07:39:12.377Z,51.40
2023-05-22T07:41:44.757Z,52.34
2023-05-22T07:44:17.945Z,51.62
2023-05-22T07:46:52.600Z,51.57
2023-05-22T07:49:32.051Z,50.97
2023-05-22T07:55:01.036Z,50.93
2023-05-22T07:57:37.823Z,50.94
2023-05-22T08:00:05.264Z,50.74
2023-05-22T08:02:32.387Z,50.55
2023-05-22T08:05:08.030Z,51.02
2023-05-22T08:07:34.745Z,49.82
2023-05-22T08:10:09.970Z,49.86
2023-05-22T08:15:27.451Z,48.24
2023-05-22T08:17:57.296Z,47.69
2023-05-22T08:20:27.813Z,47.72
2023-05-22T08:22:54.568Z,48.20
2023-05-22T08:25:24.276Z,48.42
2023-05-22T08:27:51.060Z,48.17
2023-05-22T08:30:18.068Z,48.25
2023-05-22T08:32:44.888Z,47.52
2023-05-22T08:35:39.693Z,47.56
2023-05-22T08:38:07.167Z,48.46
2023-05-22T08:40:44.536Z,48.33
2023-05-22T08:43:12.757Z,47.79
2023-05-22T08:45:40.282Z,47.26
2023-05-22T08:48:08.347Z,47.60
2023-05-22T08:50:41.754Z,48.51
2023-05-22T08:53:15.562Z,47.62
2023-05-22T08:55:44.213Z,48.25
2023-05-22T08:58:15.404Z,47.59
2023-05-22T09:00:53.148Z,47.91
2023-05-22T09:03:20.106Z,48.18
2023-05-22T09:05:49.911Z,48.29
2023-05-22T09:08:21.018Z,48.82
2023-05-22T09:16:57.461Z,46.79
2023-05-22T09:19:28.394Z,47.68
2023-05-22T09:22:07.832Z,48.04
2023-05-22T09:25:38.777Z,48.60
2023-05-22T09:28:06.558Z,47.39
2023-05-22T09:30:43.174Z,46.65
2023-05-22T09:33:33.229Z,47.09
2023-05-22T09:38:43.925Z,47.32
2023-05-22T09:41:10.965Z,46.86
2023-05-22T09:43:37.624Z,46.68
2023-05-22T09:46:23.157Z,46.80
2023-05-22T09:54:35.404Z,45.63
2023-05-22T10:00:26.724Z,44.76
2023-05-22T10:03:20.448Z,45.66
2023-05-22T10:05:53.768Z,45.32
2023-05-22T10:08:37.335Z,44.73
2023-05-22T10:11:11.144Z,45.49
2023-05-22T10:13:40.128Z,45.59
2023-05-22T10:16:14.900Z,45.01
2023-05-22T10:18:45.932Z,44.84
2023-05-22T10:21:18.456Z,45.53
2023-05-22T10:23:51.625Z,44.35
2023-05-22T10:26:20.417Z,44.88
2023-05-22T10:28:58.400Z,44.17
2023-05-22T10:31:50.009Z,44.96
2023-05-22T10:34:30.204Z,44.45
2023-05-22T10:37:19.889Z,42.79
2023-05-22T10:40:03.687Z,43.77
2023-05-22T10:42:34.849Z,44.25
2023-05-22T10:45:07.063Z,44.41
2023-05-22T10:47:34.584Z,44.10
2023-05-22T10:50:09.405Z,42.64
2023-05-22T10:52:36.826Z,42.62
2023-05-22T10:55:11.510Z,41.49
2023-05-22T10:57:39.407Z,42.48
2023-05-22T11:00:13.737Z,42.23
2023-05-22T11:02:47.670Z,41.70
2023-05-22T11:05:17.771Z,42.23
2023-05-22T11:07:45.710Z,41.12
2023-05-22T11:10:28.952Z,42.24
2023-05-22T11:13:14.528Z,41.08
2023-05-22T11:15:49.442Z,41.21
2023-05-22T11:18:17.466Z,41.17
2023-05-22T11:20:52.049Z,40.82
2023-05-22T11:23:31.944Z,41.65
2023-05-22T11:26:20.502Z,38.75
2023-05-22T11:28:51.867Z,40.55
2023-05-22T11:31:23.677Z,41.14
2023-05-22T11:33:50.610Z,40.31
2023-05-22T11:36:18.823Z,40.28
2023-05-22T11:38:47.782Z,40.54
2023-05-22T11:41:15.294Z,39.85
2023-05-22T11:43:47.919Z,39.31
2023-05-22T11:46:14.704Z,40.33
2023-05-22T11:48:44.070Z,40.11
2023-05-22T11:51:11.162Z,39.35
2023-05-22T11:53:38.021Z,39.85
2023-05-22T11:56:07.624Z,39.90
2023-05-22T11:58:38.795Z,41.53
2023-05-22T12:01:06.550Z,40.74
2023-05-22T12:03:36.247Z,40.13
2023-05-22T12:06:17.597Z,40.00
2023-05-22T12:08:46.179Z,39.69
2023-05-22T12:11:12.981Z,39.15
2023-05-22T12:13:42.782Z,39.84
2023-05-22T12:16:27.787Z,39.75
2023-05-22T12:18:54.707Z,41.11
2023-05-22T12:21:25.018Z,41.68
2023-05-22T12:23:51.999Z,41.82
2023-05-22T12:26:20.426Z,41.46
2023-05-22T12:28:47.172Z,41.71
2023-05-22T12:31:21.214Z,42.34
2023-05-22T12:33:48.346Z,42.80
2023-05-22T12:36:15.275Z,42.29
2023-05-22T12:38:42.043Z,41.81
2023-05-22T12:41:13.442Z,41.82
2023-05-22T12:43:43.146Z,40.85
2023-05-22T12:46:12.501Z,41.08
2023-05-22T12:48:44.591Z,41.00
2023-05-22T12:51:11.313Z,40.72
2023-05-22T12:53:40.323Z,40.57
2023-05-22T12:56:07.352Z,41.59
2023-05-22T12:58:34.103Z,41.48
2023-05-22T13:01:00.830Z,40.47
2023-05-22T13:03:27.888Z,40.39
2023-05-22T13:05:54.746Z,40.66
2023-05-22T13:08:21.456Z,40.17
2023-05-22T13:10:53.192Z,40.46
2023-05-22T13:13:19.936Z,40.82
2023-05-22T13:15:55.862Z,40.76
2023-05-22T13:18:25.599Z,39.93
2023-05-22T13:20:52.666Z,40.06
2023-05-22T13:23:19.299Z,40.03
2023-05-22T13:25:46.024Z,40.72
2023-05-22T13:28:21.552Z,40.22
2023-05-22T13:30:48.352Z,39.88
2023-05-22T13:33:15.066Z,39.53
2023-05-22T13:35:47.567Z,40.40
2023-05-22T13:38:17.445Z,39.51
2023-05-22T13:40:48.786Z,40.23
2023-05-22T13:43:15.739Z,40.15
2023-05-22T13:45:42.725Z,39.32
2023-05-22T13:48:09.581Z,39.46
2023-05-22T13:50:39.086Z,39.51
2023-05-22T13:53:05.886Z,40.32
2023-05-22T13:55:32.662Z,40.33
2023-05-22T13:57:59.507Z,40.29
2023-05-22T14:00:28.660Z,39.87
2023-05-22T14:02:55.622Z,39.88
2023-05-22T14:05:26.763Z,40.30
2023-05-22T14:07:53.548Z,39.15
2023-05-22T14:10:21.207Z,39.72
2023-05-22T14:12:48.108Z,38.88
2023-05-22T14:15:35.115Z,39.79
2023-05-22T14:18:05.575Z,39.68
2023-05-22T14:20:38.713Z,39.37
2023-05-22T14:23:05.530Z,39.92
2023-05-22T14:25:32.821Z,39.38
2023-05-22T14:28:06.838Z,38.93
2023-05-22T14:30:35.948Z,39.12
2023-05-22T14:33:04.956Z,38.94
2023-05-22T14:35:35.075Z,38.95
2023-05-22T14:38:08.401Z,38.80
2023-05-22T14:40:45.777Z,37.41
2023-05-22T14:43:14.944Z,38.55
2023-05-22T14:45:45.441Z,39.29
2023-05-22T14:48:13.806Z,38.77
2023-05-22T14:50:41.253Z,39.08
2023-05-22T14:53:08.049Z,38.97
2023-05-22T14:55:46.733Z,39.06
2023-05-22T14:58:16.574Z,39.42
2023-05-22T15:00:46.384Z,39.63
2023-05-22T15:05:59.372Z,39.59
2023-05-22T15:08:27.633Z,38.25
2023-05-22T15:11:01.670Z,39.26
2023-05-22T15:13:30.847Z,39.16
2023-05-22T15:16:00.593Z,38.88
2023-05-22T15:18:27.346Z,39.00
2023-05-22T15:20:56.551Z,38.58
2023-05-22T15:23:23.272Z,39.33
2023-05-22T15:25:50.014Z,39.99
2023-05-22T15:28:20.235Z,39.62
2023-05-22T15:30:47.222Z,40.01
2023-05-22T15:33:15.296Z,39.54
2023-05-22T15:35:44.977Z,40.92
2023-05-22T15:38:16.342Z,39.80
2023-05-22T15:40:43.843Z,39.77
2023-05-22T15:43:13.664Z,39.36
2023-05-22T15:45:42.623Z,40.25
2023-05-22T15:48:13.228Z,39.64
2023-05-22T15:50:47.981Z,40.37
2023-05-22T15:53:18.777Z,40.19
2023-05-22T15:55:50.913Z,40.12
2023-05-22T15:58:25.408Z,40.32
2023-05-22T16:00:52.119Z,41.10
2023-05-22T16:03:29.446Z,41.30
2023-05-22T16:05:56.790Z,41.07
2023-05-22T16:08:26.232Z,41.39
2023-05-22T16:11:01.681Z,41.62
2023-05-22T16:13:32.366Z,40.98
2023-05-22T16:16:02.591Z,40.98
2023-05-22T16:18:36.180Z,41.01
2023-05-22T16:21:06.007Z,41.31
2023-05-22T16:23:34.342Z,40.94
2023-05-22T16:26:01.208Z,41.67
2023-05-22T16:28:33.258Z,41.34
2023-05-22T16:31:05.219Z,42.04
2023-05-22T16:33:35.942Z,41.68
2023-05-22T16:36:05.285Z,42.81
2023-05-22T16:38:32.039Z,42.83
2023-05-22T16:40:59.290Z,45.35
2023-05-22T16:43:30.668Z,45.67
2023-05-22T16:46:00.527Z,48.26
2023-05-22T16:48:27.640Z,48.69
2023-05-22T16:50:54.367Z,48.16
2023-05-22T16:53:21.109Z,47.84
2023-05-22T16:55:47.882Z,47.44
2023-05-22T16:58:14.606Z,48.15
2023-05-22T17:00:43.555Z,48.96
2023-05-22T17:03:15.829Z,49.40
2023-05-22T17:05:45.700Z,50.45
2023-05-22T17:08:12.408Z,50.56
2023-05-22T17:10:45.276Z,50.87
2023-05-22T17:13:14.286Z,51.99
2023-05-22T17:15:42.086Z,52.70
2023-05-22T17:18:13.320Z,54.80
2023-05-22T17:20:42.845Z,54.55
2023-05-22T17:23:18.381Z,55.41
2023-05-22T17:25:47.014Z,55.13
2023-05-22T17:28:14.891Z,55.33
2023-05-22T17:30:46.334Z,55.31
2023-05-22T17:33:16.310Z,55.91
2023-05-22T17:35:48.740Z,55.75
2023-05-22T17:38:18.327Z,57.70
2023-05-22T17:40:49.190Z,56.34
2023-05-22T17:43:35.260Z,56.40
2023-05-22T17:46:09.826Z,55.52
2023-05-22T17:48:37.337Z,55.38
2023-05-22T17:51:04.190Z,54.15
2023-05-22T17:53:30.882Z,54.05
2023-05-22T17:55:57.889Z,54.29
2023-05-22T17:58:24.554Z,55.21
2023-05-22T18:00:51.440Z,55.17
2023-05-22T18:03:25.582Z,55.52
2023-05-22T18:05:55.654Z,55.65
2023-05-22T18:08:27.703Z,56.05
2023-05-22T18:10:56.911Z,55.70
2023-05-22T18:13:29.858Z,55.01
2023-05-22T18:15:56.889Z,56.12
2023-05-22T18:18:23.735Z,57.17
2023-05-22T18:20:54.212Z,56.42
2023-05-22T18:23:21.225Z,56.45
2023-05-22T18:25:51.102Z,56.61
2023-05-22T18:28:20.402Z,56.50
2023-05-22T18:30:50.401Z,57.05
2023-05-22T18:33:17.211Z,57.41
2023-05-22T18:35:43.979Z,58.14
2023-05-22T18:38:10.728Z,57.96
2023-05-22T18:40:41.131Z,59.32
2023-05-22T18:43:07.985Z,59.58
2023-05-22T18:45:41.121Z,59.82
2023-05-22T18:48:07.998Z,59.39
2023-05-22T18:50:34.924Z,60.82
2023-05-22T18:53:04.128Z,61.16
2023-05-22T18:55:38.054Z,61.02
2023-05-22T18:58:05.197Z,61.25
2023-05-22T19:00:34.557Z,61.61
2023-05-22T19:03:03.282Z,61.79
2023-05-22T19:05:32.614Z,61.44
2023-05-22T19:07:59.595Z,61.33
2023-05-22T19:10:26.323Z,62.08
2023-05-22T19:12:53.135Z,62.56
2023-05-22T19:15:19.906Z,62.26
2023-05-22T19:17:46.921Z,62.94
2023-05-22T19:20:14.940Z,63.05
2023-05-22T19:22:41.956Z,63.42
2023-05-22T19:25:09.031Z,63.13
2023-05-22T19:27:38.784Z,63.72
2023-05-22T19:30:06.758Z,63.49
2023-05-22T19:32:36.301Z,64.31
2023-05-22T19:35:03.273Z,63.95
2023-05-22T19:37:30.373Z,63.46
2023-05-22T19:39:57.223Z,63.74
2023-05-22T19:42:26.702Z,63.47
2023-05-22T19:44:53.519Z,63.93
2023-05-22T19:47:23.454Z,64.52
2023-05-22T19:49:50.347Z,64.67
2023-05-22T19:52:17.171Z,64.64
2023-05-22T19:54:47.597Z,63.73
2023-05-22T19:57:16.926Z,64.23
2023-05-22T19:59:43.791Z,64.98
2023-05-22T20:02:10.597Z,65.74
2023-05-22T20:04:39.336Z,65.01
2023-05-22T20:07:06.326Z,65.06
2023-05-22T20:09:34.202Z,64.78
2023-05-22T20:12:01.182Z,64.40
2023-05-22T20:14:27.899Z,64.76
2023-05-22T20:16:54.854Z,65.39
2023-05-22T20:19:24.122Z,65.56
2023-05-22T20:21:51.642Z,65.55
2023-05-22T20:24:20.268Z,65.31
2023-05-22T20:26:47.547Z,65.62
2023-05-22T20:29:14.836Z,65.61
2023-05-22T20:31:41.734Z,65.92
2023-05-22T20:34:11.536Z,66.06
2023-05-22T20:36:41.324Z,66.10
2023-05-22T20:39:09.068Z,65.86
2023-05-22T20:41:35.975Z,66.12
2023-05-22T20:44:02.709Z,67.16
2023-05-22T20:46:29.811Z,67.76
2023-05-22T20:48:57.153Z,67.96
2023-05-22T20:51:24.134Z,68.23
2023-05-22T20:53:51.158Z,67.68
2023-05-22T20:56:18.281Z,67.72
2023-05-22T20:58:45.030Z,68.56
2023-05-22T21:01:12.001Z,68.29
2023-05-22T21:03:41.050Z,68.78
2023-05-22T21:06:13.769Z,68.77
2023-05-22T21:08:46.420Z,69.11
2023-05-22T21:11:13.332Z,68.28
2023-05-22T21:13:40.069Z,68.99
2023-05-22T21:16:09.731Z,68.67
2023-05-22T21:18:36.900Z,69.13
2023-05-22T21:21:05.981Z,69.05
2023-05-22T21:23:32.747Z,69.48
2023-05-22T21:25:59.547Z,68.83
2023-05-22T21:28:26.506Z,69.48
2023-05-22T21:30:55.259Z,69.35
2023-05-22T21:33:22.832Z,69.76
2023-05-22T21:35:49.825Z,70.69
2023-05-22T21:38:16.728Z,70.72
2023-05-22T21:40:43.366Z,72.14
2023-05-22T21:43:10.489Z,70.90
2023-05-22T21:45:37.144Z,70.99
2023-05-22T21:48:04.142Z,70.64
2023-05-22T21:50:32.920Z,71.26
2023-05-22T21:52:59.705Z,70.46
2023-05-22T21:55:26.492Z,70.76
2023-05-22T21:57:53.229Z,71.03
2023-05-22T22:00:20.049Z,71.58
2023-05-22T22:02:46.815Z,71.58
2023-05-22T22:05:21.296Z,71.58
2023-05-22T22:07:47.966Z,71.99
2023-05-22T22:10:14.679Z,72.21
2023-05-22T22:12:43.496Z,72.65
2023-05-22T22:15:12.043Z,71.95
2023-05-22T22:17:44.134Z,71.86
2023-05-22T22:20:11.305Z,72.48
2023-05-22T22:22:38.117Z,72.56
2023-05-22T22:25:07.387Z,72.98
2023-05-22T22:27:34.196Z,73.07
2023-05-22T22:30:00.868Z,72.90
2023-05-22T22:32:29.871Z,72.81
2023-05-22T22:34:57.685Z,73.06
2023-05-22T22:37:24.399Z,73.25
2023-05-22T22:39:51.424Z,73.91
2023-05-22T22:42:18.302Z,74.32
2023-05-22T22:44:45.050Z,74.91
2023-05-22T22:47:11.722Z,75.94
2023-05-22T22:49:41.209Z,75.42
2023-05-22T22:52:08.429Z,75.34
2023-05-22T22:54:35.139Z,75.14
2023-05-22T22:57:02.035Z,75.33
2023-05-22T22:59:31.707Z,75.46
2023-05-22T23:01:58.567Z,75.09
2023-05-22T23:04:25.480Z,75.99
2023-05-22T23:06:52.571Z,76.28
2023-05-22T23:09:19.381Z,76.30
2023-05-22T23:11:49.024Z,75.88
2023-05-22T23:14:15.858Z,76.41
2023-05-22T23:16:42.857Z,76.67
2023-05-22T23:19:10.784Z,77.04
2023-05-22T23:21:37.918Z,77.08
2023-05-22T23:24:05.195Z,76.97
2023-05-22T23:26:32.888Z,77.54
2023-05-22T23:29:00.390Z,77.37
2023-05-22T23:31:28.011Z,77.87
2023-05-22T23:33:55.335Z,77.89
2023-05-22T23:36:24.866Z,78.09
2023-05-22T23:38:51.752Z,77.88
2023-05-22T23:41:18.639Z,78.07
2023-05-22T23:43:46.397Z,78.13
2023-05-22T23:46:15.970Z,78.21
2023-05-22T23:48:43.137Z,78.29
2023-05-22T23:51:10.298Z,78.39
2023-05-22T23:53:37.613Z,78.13
2023-05-22T23:56:04.748Z,77.78
2023-05-22T23:58:31.423Z,78.26
